Time;durP1;ratioP1;P1;durP2;ratioP2;P2;SDS_P1;SDS_P2;PMS_P1;PMS_P2;Temp;Humidity;BMP_temperature;BMP_pressure;BME280_temperature;BME280_humidity;BME280_pressure;Samples;Min_cycle;Max_cycle;Signal;HPM_P1;HPM_P2
2022/10/01 00:00:52;;;;;;;;;2.25;2.25;;;;;14.79;67.63;100060.88;4860195;29;45747;-80
2022/10/01 00:03:19;;;;;;;;;5.25;3.50;;;;;14.79;67.48;100050.31;4859008;29;48092;-79
2022/10/01 00:05:46;;;;;;;;;3.25;3.00;;;;;14.75;67.66;100043.69;4860275;29;46059;-79
2022/10/01 00:08:15;;;;;;;;;2.25;2.25;;;;;14.76;67.68;100036.63;4843125;29;45662;-79
2022/10/01 00:10:42;;;;;;;;;3.00;2.50;;;;;14.75;68.23;100027.88;4860453;29;45748;-78
2022/10/01 00:13:07;;;;;;;;;4.25;2.50;;;;;14.76;67.90;100034.81;4858755;29;47672;-76
2022/10/01 00:18:56;;;;;;;;;2.00;2.00;;;;;14.75;68.49;99998.88;4859605;29;45455;-77
2022/10/01 00:21:27;;;;;;;;;2.00;2.00;;;;;14.74;68.60;100015.66;4860267;29;45896;-76
2022/10/01 00:24:01;;;;;;;;;3.00;3.00;;;;;14.72;68.67;100003.63;4860132;29;47010;-76
2022/10/01 00:26:29;;;;;;;;;4.00;4.00;;;;;14.68;68.65;99995.19;4860337;29;46482;-80
2022/10/01 00:28:57;;;;;;;;;2.00;1.50;;;;;14.69;68.88;99984.47;4860167;29;45757;-78
2022/10/01 00:31:24;;;;;;;;;2.50;2.00;;;;;14.70;69.14;99986.16;4860372;29;45838;-78
2022/10/01 00:33:53;;;;;;;;;3.00;2.25;;;;;14.69;68.92;99984.47;4860186;29;45751;-76
2022/10/01 00:36:19;;;;;;;;;2.00;2.00;;;;;14.70;69.36;99995.88;4859757;29;46529;-77
2022/10/01 00:38:46;;;;;;;;;2.00;2.00;;;;;14.69;69.53;99981.84;4859650;29;45895;-76
2022/10/01 00:41:11;;;;;;;;;2.25;2.00;;;;;14.67;69.70;99991.72;4859763;29;45694;-78
2022/10/01 00:43:43;;;;;;;;;2.50;2.50;;;;;14.67;69.94;99996.19;4859757;29;45654;-74
2022/10/01 00:46:11;;;;;;;;;2.25;1.75;;;;;14.63;69.78;100003.53;4859472;29;45575;-77
2022/10/01 00:48:55;;;;;;;;;1.50;1.50;;;;;14.63;69.56;100005.34;4860530;29;45648;-78
2022/10/01 00:51:21;;;;;;;;;2.50;2.00;;;;;14.61;70.27;100007.31;4863195;29;45653;-78
2022/10/01 00:53:47;;;;;;;;;3.00;2.00;;;;;14.59;70.16;99994.28;4864025;29;45614;-79
2022/10/01 00:56:12;;;;;;;;;3.00;3.00;;;;;14.57;70.40;99992.78;4866025;29;46188;-79
2022/10/01 00:58:38;;;;;;;;;1.00;1.00;;;;;14.56;70.45;100010.41;4866264;29;45789;-78
2022/10/01 01:01:04;;;;;;;;;3.00;2.00;;;;;14.57;71.14;99982.25;4866102;29;45576;-79
2022/10/01 01:03:29;;;;;;;;;1.75;1.75;;;;;14.56;71.19;99999.88;4867302;29;45620;-81
2022/10/01 01:05:55;;;;;;;;;2.25;1.25;;;;;14.50;71.29;99983.81;4867634;29;45458;-80
2022/10/01 01:08:20;;;;;;;;;3.50;3.00;;;;;14.51;71.46;99991.56;4866305;29;45510;-78
2022/10/01 01:10:55;;;;;;;;;2.50;2.00;;;;;14.47;71.95;99987.56;4867438;29;45499;-82
2022/10/01 01:13:31;;;;;;;;;2.25;1.25;;;;;14.47;72.43;99992.00;4867344;29;46565;-78
2022/10/01 01:19:48;;;;;;;;;3.00;2.00;;;;;14.45;72.71;100001.88;4866401;29;45603;-80
2022/10/01 01:22:18;;;;;;;;;2.75;2.00;;;;;14.45;72.51;100012.41;4866068;29;45685;-76
2022/10/01 01:24:54;;;;;;;;;1.25;1.25;;;;;14.45;72.74;99991.34;4864979;29;47964;-77
2022/10/01 01:27:22;;;;;;;;;1.00;1.00;;;;;14.47;72.62;99992.81;4863123;29;46290;-79
2022/10/01 01:30:00;;;;;;;;;2.00;2.00;;;;;14.45;72.88;99975.53;4862054;29;45727;-78
2022/10/01 01:32:31;;;;;;;;;2.00;2.00;;;;;14.48;73.19;99986.59;4862313;29;45419;-80
2022/10/01 01:35:02;;;;;;;;;1.00;1.00;;;;;14.49;73.06;99961.88;4862129;29;45702;-80
2022/10/01 01:37:32;;;;;;;;;1.00;1.00;;;;;14.52;73.26;99951.03;4861911;29;46214;-79
2022/10/01 01:40:00;;;;;;;;;1.00;1.00;;;;;14.53;73.24;99939.50;4862040;29;45711;-80
2022/10/01 01:42:36;;;;;;;;;1.00;1.00;;;;;14.56;73.40;99959.50;4862072;29;45519;-79
2022/10/01 01:45:04;;;;;;;;;1.00;1.00;;;;;14.57;73.61;99961.16;4861680;29;45460;-80
2022/10/01 01:47:32;;;;;;;;;1.50;1.00;;;;;14.58;73.63;99957.50;4861847;29;46479;-80
2022/10/01 01:50:01;;;;;;;;;1.00;1.00;;;;;14.59;73.65;99967.09;4861992;29;45657;-81
2022/10/01 01:52:28;;;;;;;;;1.00;1.00;;;;;14.61;73.42;99958.06;4861917;29;45585;-81
2022/10/01 01:54:54;;;;;;;;;1.00;1.00;;;;;14.64;73.61;99970.94;4844830;29;47239;-81
2022/10/01 01:57:20;;;;;;;;;0.00;0.00;;;;;14.66;73.63;99947.06;4861623;29;45588;-81
2022/10/01 01:59:46;;;;;;;;;0.00;0.00;;;;;14.65;73.67;99948.84;4861688;29;45672;-81
2022/10/01 02:02:22;;;;;;;;;0.00;0.00;;;;;14.66;73.93;99950.53;4861421;29;45613;-80
2022/10/01 02:04:55;;;;;;;;;0.50;0.50;;;;;14.69;73.78;99946.75;4844718;29;48118;-77
2022/10/01 02:07:56;;;;;;;;;0.00;0.00;;;;;14.72;74.01;99959.63;4861619;29;45750;-77
2022/10/01 02:10:52;;;;;;;;;0.00;0.00;;;;;14.77;73.95;99938.91;4844592;29;45575;-77
2022/10/01 02:13:45;;;;;;;;;0.00;0.00;;;;;14.77;73.71;99957.38;4861707;29;45526;-76
2022/10/01 02:16:20;;;;;;;;;0.25;0.00;;;;;14.77;73.69;99938.06;4860121;29;46484;-76
2022/10/01 02:19:00;;;;;;;;;0.50;0.50;;;;;14.78;73.62;99930.03;4861286;29;45904;-79
2022/10/01 02:21:38;;;;;;;;;0.25;0.25;;;;;14.79;73.47;99938.78;4861583;29;45807;-81
2022/10/01 02:24:22;;;;;;;;;1.00;0.00;;;;;14.82;73.58;99935.81;4861702;29;45879;-82
2022/10/01 02:26:51;;;;;;;;;1.00;0.00;;;;;14.82;73.59;99941.09;4861338;29;45581;-81
2022/10/01 02:29:20;;;;;;;;;0.00;0.00;;;;;14.83;73.82;99926.94;4861436;29;46193;-79
2022/10/01 02:31:48;;;;;;;;;0.00;0.00;;;;;14.86;73.62;99926.59;4861272;29;45699;-80
2022/10/01 02:34:17;;;;;;;;;0.75;0.00;;;;;14.87;73.94;99933.53;4861529;29;45606;-79
2022/10/01 02:36:44;;;;;;;;;0.00;0.00;;;;;14.89;73.56;99931.59;4861291;29;46538;-80
2022/10/01 02:39:14;;;;;;;;;0.00;0.00;;;;;14.91;73.86;99925.16;4861115;29;45959;-80
2022/10/01 02:41:43;;;;;;;;;0.00;0.00;;;;;14.95;73.76;99923.06;4861230;29;45657;-79
2022/10/01 02:44:15;;;;;;;;;0.00;0.00;;;;;14.96;74.21;99927.34;4861565;29;45515;-80
2022/10/01 02:46:49;;;;;;;;;0.00;0.00;;;;;14.99;73.89;99922.59;4860824;29;45597;-78
2022/10/01 02:49:14;;;;;;;;;0.75;0.75;;;;;15.00;73.80;99924.25;4860930;29;45646;-79
2022/10/01 02:51:45;;;;;;;;;0.00;0.00;;;;;15.03;73.72;99942.41;4861127;29;45521;-79
2022/10/01 02:54:18;;;;;;;;;0.00;0.00;;;;;15.06;73.87;99899.06;4861724;29;45614;-79
2022/10/01 02:59:28;;;;;;;;;0.00;0.00;;;;;15.09;73.97;99890.84;4860621;29;46039;-77
2022/10/01 03:01:53;;;;;;;;;0.25;0.25;;;;;15.11;74.14;99899.44;4860706;29;45768;-76
2022/10/01 03:04:19;;;;;;;;;0.00;0.00;;;;;15.12;74.30;99885.25;4844035;29;45537;-76
2022/10/01 03:06:45;;;;;;;;;0.25;0.00;;;;;15.13;74.39;99876.34;4860736;29;46429;-76
2022/10/01 03:09:11;;;;;;;;;0.00;0.00;;;;;15.16;73.75;99901.59;4860899;29;45700;-74
2022/10/01 03:11:36;;;;;;;;;0.00;0.00;;;;;15.16;74.39;99891.06;4860766;29;45636;-76
2022/10/01 03:14:02;;;;;;;;;0.00;0.00;;;;;15.18;74.40;99870.59;4843044;29;46035;-77
2022/10/01 03:16:28;;;;;;;;;0.00;0.00;;;;;15.20;74.31;99884.47;4860706;29;46645;-80
2022/10/01 03:18:53;;;;;;;;;0.00;0.00;;;;;15.19;74.39;99866.97;4860517;29;46131;-80
2022/10/01 03:21:18;;;;;;;;;0.00;0.00;;;;;15.17;74.25;99884.78;4860631;29;45688;-79
2022/10/01 03:23:44;;;;;;;;;0.00;0.00;;;;;15.20;74.38;99897.66;4843740;29;45576;-81
2022/10/01 03:26:09;;;;;;;;;0.00;0.00;;;;;15.21;74.61;99876.41;4860614;29;45665;-81
2022/10/01 03:28:34;;;;;;;;;0.00;0.00;;;;;15.21;74.27;99894.88;4860347;29;45579;-79
2022/10/01 03:31:08;;;;;;;;;0.00;0.00;;;;;15.24;74.40;99914.84;4860230;29;45462;-78
2022/10/01 03:33:34;;;;;;;;;0.00;0.00;;;;;15.26;74.46;99884.69;4860612;29;45666;-79
2022/10/01 03:36:00;;;;;;;;;0.00;0.00;;;;;15.27;74.68;99888.16;4860408;29;45787;-78
2022/10/01 03:38:26;;;;;;;;;0.00;0.00;;;;;15.29;74.63;99896.72;4860150;29;45652;-79
2022/10/01 03:40:51;;;;;;;;;0.00;0.00;;;;;15.30;74.39;99869.34;4860280;29;45624;-81
2022/10/01 03:43:16;;;;;;;;;0.00;0.00;;;;;15.32;74.82;99891.97;4860428;29;45631;-81
2022/10/01 03:45:42;;;;;;;;;0.00;0.00;;;;;15.33;75.03;99866.41;4859917;29;45530;-77
2022/10/01 03:48:07;;;;;;;;;0.00;0.00;;;;;15.36;74.91;99897.75;4860169;29;46180;-81
2022/10/01 03:50:32;;;;;;;;;0.00;0.00;;;;;15.39;74.98;99892.97;4860026;29;45622;-80
2022/10/01 03:52:58;;;;;;;;;0.00;0.00;;;;;15.38;74.10;99879.97;4860364;29;45510;-81
2022/10/01 03:55:24;;;;;;;;;0.00;0.00;;;;;15.39;75.15;99885.06;4860004;29;46471;-79
2022/10/01 03:57:50;;;;;;;;;0.00;0.00;;;;;15.45;75.15;99920.56;4859989;29;46163;-76
2022/10/01 04:00:17;;;;;;;;;0.00;0.00;;;;;15.44;75.39;99888.06;4860238;29;45754;-77
2022/10/01 04:06:04;;;;;;;;;0.00;0.00;;;;;15.48;75.19;99922.91;4859723;29;45460;-78
2022/10/01 04:08:30;;;;;;;;;0.00;0.00;;;;;15.48;75.22;99933.47;4859927;29;46028;-80
2022/10/01 04:10:55;;;;;;;;;0.00;0.00;;;;;15.50;75.55;99936.75;4859867;29;45702;-78
2022/10/01 04:13:20;;;;;;;;;0.00;0.00;;;;;15.51;75.21;99941.06;4860133;29;45646;-80
2022/10/01 04:15:47;;;;;;;;;0.00;0.00;;;;;15.53;75.59;99928.56;4859716;29;45643;-79
2022/10/01 04:18:16;;;;;;;;;0.00;0.00;;;;;15.57;75.67;99934.34;4859830;29;46136;-77
2022/10/01 04:20:41;;;;;;;;;0.00;0.00;;;;;15.60;75.70;99942.78;4859952;29;45481;-80
2022/10/01 04:23:07;;;;;;;;;0.00;0.00;;;;;15.60;75.95;99940.13;4860135;29;45455;-79
2022/10/01 04:25:32;;;;;;;;;0.00;0.00;;;;;15.61;75.95;99965.56;4861067;29;45564;-78
2022/10/01 04:28:03;;;;;;;;;0.00;0.00;;;;;15.60;76.29;99963.91;4862911;29;45739;-80
2022/10/01 04:30:31;;;;;;;;;0.00;0.00;;;;;15.60;76.25;99952.53;4863007;29;45668;-80
2022/10/01 04:36:19;;;;;;;;;0.00;0.00;;;;;15.65;76.68;99952.91;4862675;29;45966;-78
2022/10/01 04:38:44;;;;;;;;;0.00;0.00;;;;;15.66;76.42;99963.28;4862772;29;45893;-80
2022/10/01 04:41:09;;;;;;;;;0.00;0.00;;;;;15.71;76.79;99976.84;4862926;29;46085;-80
2022/10/01 04:43:35;;;;;;;;;0.00;0.00;;;;;15.72;76.67;99965.28;4863134;29;45561;-80
2022/10/01 04:46:01;;;;;;;;;0.00;0.00;;;;;15.76;76.40;99971.91;4862425;29;45608;-78
2022/10/01 04:48:26;;;;;;;;;0.00;0.00;;;;;15.80;76.08;99977.72;4845509;29;47047;-80
2022/10/01 04:50:51;;;;;;;;;0.00;0.00;;;;;15.88;76.61;99989.16;4862505;29;45524;-79
2022/10/01 04:53:17;;;;;;;;;0.00;0.00;;;;;15.92;76.45;99997.59;4864428;29;45434;-79
2022/10/01 04:55:42;;;;;;;;;0.00;0.00;;;;;15.92;76.17;99989.69;4863002;29;46222;-81
2022/10/01 04:58:08;;;;;;;;;0.00;0.00;;;;;15.96;76.13;100006.84;4862237;29;45613;-79
2022/10/01 05:00:33;;;;;;;;;0.00;0.00;;;;;16.00;76.42;99997.63;4861838;29;45549;-79
2022/10/01 05:06:20;;;;;;;;;0.00;0.00;;;;;16.01;76.16;100007.22;4861860;29;46021;-81
2022/10/01 05:08:47;;;;;;;;;0.00;0.00;;;;;16.04;76.31;99996.31;4845248;29;48298;-80
2022/10/01 05:11:13;;;;;;;;;0.00;0.00;;;;;16.07;76.10;100003.09;4862269;29;45517;-79
2022/10/01 05:13:38;;;;;;;;;0.00;0.00;;;;;16.05;76.07;99990.03;4862712;29;45687;-80
2022/10/01 05:16:03;;;;;;;;;0.00;0.00;;;;;16.10;76.03;99995.69;4862391;29;46514;-80
2022/10/01 05:18:29;;;;;;;;;0.00;0.00;;;;;16.14;75.63;100026.06;4862304;29;45670;-79
2022/10/01 05:20:54;;;;;;;;;0.00;0.00;;;;;16.13;75.96;100013.88;4862337;29;45748;-78
2022/10/01 05:23:20;;;;;;;;;0.00;0.00;;;;;16.11;75.99;100001.78;4862521;29;45693;-78
2022/10/01 05:25:45;;;;;;;;;0.00;0.00;;;;;16.15;75.82;100033.03;4862328;29;45634;-77
2022/10/01 05:28:12;;;;;;;;;0.00;0.00;;;;;16.16;75.65;100025.94;4862098;29;45606;-78
2022/10/01 05:30:38;;;;;;;;;0.00;0.00;;;;;16.19;75.73;100029.09;4862187;29;45667;-76
2022/10/01 05:36:25;;;;;;;;;0.00;0.00;;;;;16.23;75.95;100038.38;4861183;29;45467;-75
2022/10/01 05:38:51;;;;;;;;;0.00;0.00;;;;;16.24;75.76;100058.53;4861871;29;46476;-77
2022/10/01 05:41:17;;;;;;;;;0.00;0.00;;;;;16.26;75.58;100053.06;4861687;29;45701;-80
2022/10/01 05:43:42;;;;;;;;;0.00;0.00;;;;;16.26;75.83;100059.19;4862282;29;45691;-79
2022/10/01 05:46:09;;;;;;;;;0.00;0.00;;;;;16.30;75.59;100068.44;4861740;29;45644;-79
2022/10/01 05:51:55;;;;;;;;;0.50;0.00;;;;;16.31;75.52;100066.63;4861652;29;45692;-80
2022/10/01 05:54:22;;;;;;;;;2.00;0.00;;;;;16.32;75.79;100077.06;4862075;29;45664;-77
2022/10/01 05:56:48;;;;;;;;;0.00;0.00;;;;;16.36;75.37;100081.03;4861664;29;46409;-77
2022/10/01 05:59:14;;;;;;;;;0.00;0.00;;;;;16.38;75.58;100084.34;4861758;29;45959;-76
2022/10/01 06:01:39;;;;;;;;;0.00;0.00;;;;;16.39;75.30;100085.19;4861785;29;45682;-76
2022/10/01 06:04:04;;;;;;;;;0.00;0.00;;;;;16.41;75.46;100093.75;4861921;29;45585;-76
2022/10/01 06:06:30;;;;;;;;;0.00;0.00;;;;;16.43;75.44;100097.09;4861730;29;46775;-79
2022/10/01 06:08:58;;;;;;;;;0.00;0.00;;;;;16.47;75.43;100102.88;4861774;29;45570;-78
2022/10/01 06:11:23;;;;;;;;;0.00;0.00;;;;;16.49;75.46;100108.84;4859994;29;45709;-78
2022/10/01 06:13:49;;;;;;;;;0.00;0.00;;;;;16.53;74.98;100120.75;4861757;29;45438;-77
2022/10/01 06:16:15;;;;;;;;;0.00;0.00;;;;;16.56;74.46;100125.75;4861367;29;45579;-78
2022/10/01 06:22:02;;;;;;;;;0.00;0.00;;;;;16.59;74.29;100134.22;4861081;29;45684;-79
2022/10/01 06:24:27;;;;;;;;;0.00;0.00;;;;;16.61;74.73;100134.06;4861547;29;45592;-79
2022/10/01 06:26:52;;;;;;;;;1.00;0.00;;;;;16.58;74.50;100129.03;4861102;29;46391;-78
2022/10/01 06:29:18;;;;;;;;;0.00;0.00;;;;;16.60;74.21;100133.22;4861196;29;45945;-76
2022/10/01 06:31:43;;;;;;;;;0.00;0.00;;;;;16.64;73.82;100144.31;4861126;29;45619;-78
2022/10/01 06:37:30;;;;;;;;;0.50;0.00;;;;;16.65;73.29;100140.69;4860841;29;46205;-79
2022/10/01 06:39:56;;;;;;;;;0.00;0.00;;;;;16.66;73.18;100139.69;4861101;29;45910;-80
2022/10/01 06:42:21;;;;;;;;;0.00;0.00;;;;;16.67;73.26;100144.84;4860872;29;45539;-76
2022/10/01 06:44:46;;;;;;;;;2.00;0.00;;;;;16.69;72.88;100150.78;4861002;29;45471;-77
2022/10/01 06:47:12;;;;;;;;;0.00;0.00;;;;;16.73;73.06;100154.75;4860878;29;46322;-79
2022/10/01 06:49:37;;;;;;;;;0.00;0.00;;;;;16.70;73.00;100141.03;4860668;29;45640;-77
2022/10/01 06:54:47;;;;;;;;;0.00;0.00;;;;;16.79;73.06;100159.41;4860526;29;45613;-78
2022/10/01 06:57:12;;;;;;;;;0.25;0.00;;;;;16.82;73.02;100160.09;4860518;29;46938;-81
2022/10/01 06:59:37;;;;;;;;;0.00;0.00;;;;;16.83;73.20;100159.94;4860823;29;45583;-79
2022/10/01 07:02:03;;;;;;;;;0.00;0.00;;;;;16.85;72.68;100162.41;4860443;29;45553;-79
2022/10/01 07:07:50;;;;;;;;;1.00;0.00;;;;;16.89;72.60;100169.91;4860070;29;46047;-79
2022/10/01 07:10:21;;;;;;;;;0.00;0.00;;;;;16.89;72.63;100180.47;4860482;29;46167;-79
2022/10/01 07:12:49;;;;;;;;;0.00;0.00;;;;;16.94;72.43;100174.69;4859586;29;45777;-77
2022/10/01 07:15:18;;;;;;;;;1.00;0.00;;;;;16.96;72.85;100186.78;4860393;29;45632;-77
2022/10/01 07:17:47;;;;;;;;;0.00;0.00;;;;;16.98;72.34;100197.19;4860324;29;45755;-76
2022/10/01 07:20:19;;;;;;;;;0.00;0.00;;;;;16.97;72.37;100206.97;4858632;29;46678;-74
2022/10/01 07:22:46;;;;;;;;;0.00;0.00;;;;;16.97;72.55;100201.66;4860199;29;45623;-74
2022/10/01 07:25:12;;;;;;;;;0.00;0.00;;;;;17.00;72.29;100195.25;4860260;29;45830;-75
2022/10/01 07:27:38;;;;;;;;;1.00;0.00;;;;;17.01;72.55;100210.94;4860121;29;46431;-75
2022/10/01 07:30:05;;;;;;;;;0.00;0.00;;;;;17.02;72.50;100206.47;4859862;29;47188;-75
2022/10/01 07:32:31;;;;;;;;;0.00;0.00;;;;;17.02;71.95;100217.06;4860122;29;45527;-76
2022/10/01 07:34:57;;;;;;;;;0.00;0.00;;;;;17.04;71.94;100217.75;4859472;29;45916;-77
2022/10/01 07:37:23;;;;;;;;;0.00;0.00;;;;;17.04;71.56;100228.34;4843998;29;48351;-72
2022/10/01 07:39:48;;;;;;;;;1.00;0.00;;;;;17.04;71.63;100225.69;4859490;29;46236;-75
2022/10/01 07:42:14;;;;;;;;;0.00;0.00;;;;;17.04;71.68;100229.16;4859559;29;45491;-74
2022/10/01 07:44:39;;;;;;;;;1.00;0.00;;;;;17.03;71.17;100234.59;4860113;29;45617;-76
2022/10/01 07:47:05;;;;;;;;;0.75;0.00;;;;;17.02;71.23;100232.94;4860096;29;46375;-76
2022/10/01 07:52:52;;;;;;;;;0.50;0.00;;;;;17.04;71.05;100241.56;4859846;29;45826;-75
2022/10/01 07:55:19;;;;;;;;;0.50;0.50;;;;;17.06;70.51;100252.81;4860142;29;45553;-80
2022/10/01 07:57:56;;;;;;;;;2.25;0.50;;;;;17.08;69.83;100261.44;4842725;29;46433;-76
2022/10/01 08:00:24;;;;;;;;;0.75;0.25;;;;;17.08;70.16;100264.91;4859214;29;46034;-75
2022/10/01 08:02:52;;;;;;;;;1.75;1.00;;;;;17.07;69.95;100260.59;4843018;29;46023;-76
2022/10/01 08:05:20;;;;;;;;;1.00;1.00;;;;;17.07;69.40;100262.41;4860540;29;45757;-74
2022/10/01 08:07:47;;;;;;;;;1.75;1.00;;;;;17.06;69.33;100266.03;4860036;29;45705;-74
2022/10/01 08:10:13;;;;;;;;;0.50;0.00;;;;;17.09;68.99;100258.63;4859550;29;45606;-73
2022/10/01 08:12:41;;;;;;;;;1.50;1.50;;;;;17.15;68.75;100270.41;4860009;29;45570;-75
2022/10/01 08:15:09;;;;;;;;;1.25;1.00;;;;;17.17;68.53;100265.75;4860019;29;45543;-77
2022/10/01 08:17:35;;;;;;;;;1.00;1.00;;;;;17.23;68.02;100273.06;4859624;29;46235;-74
2022/10/01 08:23:22;;;;;;;;;1.50;0.00;;;;;17.28;67.66;100285.81;4859342;29;45520;-74
2022/10/01 08:25:47;;;;;;;;;1.00;1.00;;;;;17.31;67.75;100285.50;4859727;29;45527;-73
2022/10/01 08:28:13;;;;;;;;;3.50;1.00;;;;;17.35;67.14;100287.69;4859544;29;45549;-78
2022/10/01 08:30:41;;;;;;;;;0.00;0.00;;;;;17.37;67.10;100292.81;4859434;29;45931;-73
2022/10/01 08:33:09;;;;;;;;;1.25;0.00;;;;;17.38;66.79;100305.09;4858042;29;45688;-73
2022/10/01 08:35:38;;;;;;;;;1.00;1.00;;;;;17.32;66.65;100297.78;4859699;29;45859;-72
2022/10/01 08:38:04;;;;;;;;;1.00;1.00;;;;;17.31;66.73;100294.28;4859399;29;45571;-72
2022/10/01 08:40:37;;;;;;;;;3.00;1.00;;;;;17.37;66.40;100312.19;4859514;29;45767;-72
2022/10/01 08:43:11;;;;;;;;;1.50;1.00;;;;;17.39;66.97;100307.53;4859371;29;45493;-72
2022/10/01 08:45:53;;;;;;;;;2.00;1.00;;;;;17.44;66.68;100313.19;4859369;29;45663;-73
2022/10/01 08:48:18;;;;;;;;;1.50;1.00;;;;;17.46;66.46;100313.88;4857674;29;46465;-76
2022/10/01 08:51:03;;;;;;;;;2.00;1.25;;;;;17.48;66.44;100314.56;4858870;29;46134;-76
2022/10/01 08:53:38;;;;;;;;;2.75;1.75;;;;;17.54;66.78;100343.03;4860412;29;45555;-78
2022/10/01 08:56:13;;;;;;;;;1.50;0.25;;;;;17.52;66.33;100331.78;4841836;29;45942;-75
2022/10/01 08:58:44;;;;;;;;;1.00;0.75;;;;;17.58;67.00;100339.09;4859257;29;46710;-75
2022/10/01 09:01:10;;;;;;;;;3.00;1.50;;;;;17.63;66.86;100348.41;4859106;29;46073;-76
2022/10/01 09:03:38;;;;;;;;;2.00;1.25;;;;;17.67;67.07;100347.06;4858443;29;45621;-76
2022/10/01 09:06:19;;;;;;;;;1.50;1.00;;;;;17.70;67.03;100352.06;4859678;29;45569;-74
2022/10/01 09:09:36;;;;;;;;;1.00;1.00;;;;;17.76;66.65;100349.59;4859195;29;46304;-78
2022/10/01 09:12:25;;;;;;;;;3.75;1.25;;;;;17.79;66.62;100356.41;4820375;29;46604;-80
2022/10/01 09:15:00;;;;;;;;;2.00;1.00;;;;;17.83;67.17;100365.69;4823406;29;45811;-78
2022/10/01 09:17:48;;;;;;;;;0.75;0.25;;;;;17.81;66.67;100363.22;4823314;29;45617;-81
2022/10/01 09:20:30;;;;;;;;;4.00;1.50;;;;;17.84;67.33;100359.38;4823896;29;46948;-80
2022/10/01 09:23:13;;;;;;;;;1.00;1.00;;;;;17.88;67.02;100368.66;4823647;29;45763;-78
2022/10/01 09:25:39;;;;;;;;;1.00;1.00;;;;;17.91;67.27;100363.06;4824004;29;45646;-79
2022/10/01 09:28:19;;;;;;;;;1.00;1.00;;;;;17.93;66.61;100364.53;4823434;29;45765;-78
2022/10/01 09:31:11;;;;;;;;;2.00;1.00;;;;;17.94;66.30;100386.59;4822863;29;46347;-75
2022/10/01 09:33:41;;;;;;;;;1.00;0.00;;;;;17.89;66.41;100380.94;4822985;29;45927;-81
2022/10/01 09:36:18;;;;;;;;;2.00;1.00;;;;;17.86;66.13;100387.41;4823038;29;45770;-79
2022/10/01 09:39:09;;;;;;;;;4.00;1.00;;;;;17.87;66.70;100388.22;4823073;29;45752;-76
2022/10/01 09:41:34;;;;;;;;;2.00;1.00;;;;;17.89;66.37;100404.78;4822445;29;46752;-77
2022/10/01 09:44:00;;;;;;;;;2.00;1.00;;;;;17.90;66.42;100396.69;4822980;29;46692;-77
2022/10/01 09:46:25;;;;;;;;;2.75;1.00;;;;;17.91;66.32;100400.16;4825178;29;45756;-76
2022/10/01 09:52:12;;;;;;;;;1.75;1.00;;;;;17.99;65.69;100398.34;4842122;29;46081;-78
2022/10/01 09:54:47;;;;;;;;;4.25;2.00;;;;;18.03;65.91;100399.69;4843334;29;45526;-77
2022/10/01 09:57:21;;;;;;;;;2.00;1.75;;;;;18.09;65.93;100405.34;4843222;29;45617;-78
2022/10/01 10:00:11;;;;;;;;;2.50;2.00;;;;;18.10;65.56;100410.47;4843402;29;45509;-77
2022/10/01 10:02:44;;;;;;;;;3.00;1.50;;;;;18.13;65.47;100420.78;4843266;29;46606;-78
2022/10/01 10:08:38;;;;;;;;;6.00;1.00;;;;;18.23;64.74;100431.25;4843865;29;45523;-78
2022/10/01 10:11:09;;;;;;;;;3.00;1.75;;;;;18.25;64.39;100432.72;4842950;29;45699;-78
2022/10/01 10:13:50;;;;;;;;;3.50;1.00;;;;;18.25;64.12;100435.38;4843034;29;45594;-78
2022/10/01 10:16:35;;;;;;;;;3.00;2.00;;;;;18.27;64.19;100435.22;4842763;29;45869;-77
2022/10/01 10:26:03;;;;;;;;;2.00;0.50;;;;;18.45;63.57;100441.22;4840290;29;46077;-78
2022/10/01 10:28:42;;;;;;;;;3.50;2.25;;;;;18.44;63.33;100434.25;4840511;29;45557;-78
2022/10/01 10:31:20;;;;;;;;;1.75;1.75;;;;;18.45;63.22;100436.75;4841318;29;45667;-80
2022/10/01 10:33:51;;;;;;;;;3.00;2.25;;;;;18.53;62.86;100432.44;4842833;29;45646;-84
2022/10/01 10:36:18;;;;;;;;;4.50;2.50;;;;;18.57;62.73;100437.28;4842058;29;46643;-79
2022/10/01 10:38:48;;;;;;;;;2.50;1.00;;;;;18.66;62.80;100446.09;4842600;29;47178;-81
2022/10/01 10:41:20;;;;;;;;;3.25;2.00;;;;;18.69;62.14;100449.22;4843629;29;45799;-75
2022/10/01 10:43:47;;;;;;;;;2.75;1.75;;;;;18.74;61.86;100451.38;4843134;29;45707;-77
2022/10/01 10:46:21;;;;;;;;;1.50;0.75;;;;;18.77;61.89;100451.06;4841587;29;46367;-79
2022/10/01 10:48:57;;;;;;;;;1.50;0.50;;;;;18.83;60.79;100466.34;4841495;29;46126;-81
2022/10/01 10:51:23;;;;;;;;;2.25;1.00;;;;;18.80;60.54;100459.53;4840611;29;45854;-79
2022/10/01 10:53:48;;;;;;;;;6.25;1.00;;;;;18.82;60.79;100464.69;4840112;29;45664;-77
2022/10/01 10:56:23;;;;;;;;;5.25;1.00;;;;;18.86;60.58;100461.53;4840013;29;45688;-77
2022/10/01 10:58:50;;;;;;;;;3.50;2.50;;;;;18.92;60.66;100453.88;4841377;29;46175;-76
2022/10/01 11:01:24;;;;;;;;;3.75;2.00;;;;;19.01;60.63;100461.66;4841948;29;45825;-78
2022/10/01 11:03:54;;;;;;;;;2.25;1.50;;;;;19.05;60.22;100484.25;4856991;29;45889;-77
2022/10/01 11:06:21;;;;;;;;;4.00;3.00;;;;;19.05;60.38;100471.00;4844065;29;45658;-73
2022/10/01 11:08:59;;;;;;;;;2.75;1.75;;;;;19.08;60.25;100475.13;4842906;29;45510;-79
2022/10/01 11:11:32;;;;;;;;;1.25;1.25;;;;;19.13;60.28;100486.06;4842541;29;45441;-76
2022/10/01 11:14:32;;;;;;;;;2.00;2.00;;;;;19.16;59.81;100475.94;4842206;29;45527;-77
2022/10/01 11:17:17;;;;;;;;;4.00;2.00;;;;;19.17;59.74;100474.94;4843402;29;46679;-76
2022/10/01 11:20:03;;;;;;;;;3.00;2.00;;;;;19.19;59.72;100480.94;4843691;29;46575;-86
2022/10/01 11:22:53;;;;;;;;;5.25;1.75;;;;;19.22;59.37;100493.03;4842229;29;45708;-77
2022/10/01 11:25:25;;;;;;;;;4.75;2.00;;;;;19.22;58.84;100485.88;4842701;29;45761;-76
2022/10/01 11:28:20;;;;;;;;;4.25;2.00;;;;;19.26;59.21;100497.03;4842085;29;47063;-77
2022/10/01 11:30:57;;;;;;;;;6.50;3.75;;;;;19.28;58.81;100500.31;4820585;29;46319;-78
2022/10/01 11:33:43;;;;;;;;;2.75;1.00;;;;;19.33;58.83;100486.53;4821259;29;45651;-77
2022/10/01 11:39:34;;;;;;;;;5.25;1.50;;;;;19.42;58.00;100498.84;4823418;29;45721;-82
2022/10/01 11:42:12;;;;;;;;;2.50;2.25;;;;;19.45;58.02;100488.72;4823559;29;45983;-82
2022/10/01 11:44:48;;;;;;;;;3.00;1.00;;;;;19.52;57.46;100496.84;4825164;29;45716;-86
2022/10/01 11:47:27;;;;;;;;;3.00;1.25;;;;;19.57;57.37;100491.84;4823488;29;45765;-78
2022/10/01 11:50:04;;;;;;;;;2.25;1.00;;;;;19.63;57.00;100485.84;4823404;29;46486;-84
2022/10/01 11:59:21;;;;;;;;;3.75;2.00;;;;;19.68;56.79;100500.28;4821535;29;45868;-77
2022/10/01 12:01:54;;;;;;;;;2.75;2.75;;;;;19.72;56.87;100498.13;4821343;29;45822;-79
2022/10/01 12:04:31;;;;;;;;;3.75;2.50;;;;;19.74;57.01;100501.44;4821950;29;46101;-83
2022/10/01 12:07:09;;;;;;;;;3.75;2.25;;;;;19.79;57.16;100520.38;4828637;29;45719;-82
2022/10/01 12:09:54;;;;;;;;;3.00;3.00;;;;;19.82;56.55;100500.56;4843301;29;45660;-80
2022/10/01 12:12:26;;;;;;;;;3.00;1.75;;;;;19.87;56.46;100514.19;4842198;29;45757;-82
2022/10/01 12:15:17;;;;;;;;;3.00;1.00;;;;;19.93;56.37;100521.47;4843752;29;46226;-80
2022/10/01 12:17:52;;;;;;;;;1.00;1.00;;;;;19.97;55.73;100514.84;4841446;29;45686;-81
2022/10/01 12:23:33;;;;;;;;;2.75;2.00;;;;;20.05;55.06;100517.47;4840999;29;46062;-80
2022/10/01 12:26:14;;;;;;;;;2.25;1.00;;;;;20.05;54.87;100523.59;4839326;29;46334;-81
2022/10/01 12:28:48;;;;;;;;;1.75;1.00;;;;;20.05;54.87;100526.25;4840827;29;45674;-79
2022/10/01 12:31:43;;;;;;;;;4.50;2.50;;;;;20.07;54.29;100528.75;4840646;29;45638;-79
2022/10/01 12:34:35;;;;;;;;;2.00;1.00;;;;;20.04;53.57;100532.59;4839872;29;45867;-79
2022/10/01 12:40:23;;;;;;;;;2.00;1.00;;;;;20.03;53.16;100552.19;4820149;29;45587;-79
2022/10/01 12:43:12;;;;;;;;;1.00;1.00;;;;;20.01;51.91;100532.09;4817573;29;45570;-79
2022/10/01 12:46:21;;;;;;;;;3.00;1.00;;;;;19.99;52.41;100539.41;4819326;29;46455;-81
2022/10/01 12:48:47;;;;;;;;;1.00;0.25;;;;;20.00;52.48;100547.22;4750043;29;45627;-80
2022/10/01 12:51:33;;;;;;;;;1.00;0.50;;;;;20.03;52.65;100562.00;4749864;29;45622;-81
2022/10/01 12:54:23;;;;;;;;;1.25;1.00;;;;;20.02;52.82;100557.72;4750319;29;45579;-80
2022/10/01 12:57:07;;;;;;;;;1.75;1.00;;;;;20.02;53.33;100558.53;4750001;29;45718;-80
2022/10/01 12:59:59;;;;;;;;;1.25;1.00;;;;;20.02;53.53;100555.88;4750297;29;46294;-81
2022/10/01 13:02:51;;;;;;;;;3.50;0.25;;;;;20.06;54.11;100556.34;4749688;29;45598;-80